sensor_id;sensor_type;location;lat;lon;timestamp;temperature;humidity
1716;DHT22;855;48.824;9.220;2023-07-02T00:02:15;19.80;89.50
1716;DHT22;855;48.824;9.220;2023-07-02T00:07:12;19.80;89.70
1716;DHT22;855;48.824;9.220;2023-07-02T00:09:40;19.90;89.10
1716;DHT22;855;48.824;9.220;2023-07-02T00:12:09;19.90;89.10
1716;DHT22;855;48.824;9.220;2023-07-02T00:17:03;19.90;89.10
1716;DHT22;855;48.824;9.220;2023-07-02T00:19:30;19.90;89.10
1716;DHT22;855;48.824;9.220;2023-07-02T00:29:20;19.60;89.30
1716;DHT22;855;48.824;9.220;2023-07-02T00:34:22;19.70;89.00
1716;DHT22;855;48.824;9.220;2023-07-02T00:36:50;19.50;88.60
1716;DHT22;855;48.824;9.220;2023-07-02T00:39:17;19.50;89.10
1716;DHT22;855;48.824;9.220;2023-07-02T00:41:44;19.50;89.30
1716;DHT22;855;48.824;9.220;2023-07-02T00:44:12;19.60;89.10
1716;DHT22;855;48.824;9.220;2023-07-02T00:46:41;19.60;89.10
1716;DHT22;855;48.824;9.220;2023-07-02T00:49:09;19.70;89.10
1716;DHT22;855;48.824;9.220;2023-07-02T00:51:36;19.70;88.50
1716;DHT22;855;48.824;9.220;2023-07-02T00:54:04;19.80;87.90
1716;DHT22;855;48.824;9.220;2023-07-02T00:56:33;19.80;88.20
1716;DHT22;855;48.824;9.220;2023-07-02T00:59:03;19.80;89.30
1716;DHT22;855;48.824;9.220;2023-07-02T01:01:33;19.80;89.00
1716;DHT22;855;48.824;9.220;2023-07-02T01:04:08;19.80;89.10
1716;DHT22;855;48.824;9.220;2023-07-02T01:06:38;19.60;89.00
1716;DHT22;855;48.824;9.220;2023-07-02T01:09:07;19.50;89.00
1716;DHT22;855;48.824;9.220;2023-07-02T01:11:38;19.50;89.00
1716;DHT22;855;48.824;9.220;2023-07-02T01:14:09;19.60;89.40
1716;DHT22;855;48.824;9.220;2023-07-02T01:16:36;19.50;89.00
1716;DHT22;855;48.824;9.220;2023-07-02T01:19:11;19.50;89.00
1716;DHT22;855;48.824;9.220;2023-07-02T01:21:41;19.40;89.40
1716;DHT22;855;48.824;9.220;2023-07-02T01:26:37;19.30;89.10
1716;DHT22;855;48.824;9.220;2023-07-02T01:29:14;19.20;89.70
1716;DHT22;855;48.824;9.220;2023-07-02T01:31:41;19.10;89.50
1716;DHT22;855;48.824;9.220;2023-07-02T01:34:08;19.10;89.50
1716;DHT22;855;48.824;9.220;2023-07-02T01:36:36;19.00;89.80
1716;DHT22;855;48.824;9.220;2023-07-02T01:39:04;18.90;90.10
1716;DHT22;855;48.824;9.220;2023-07-02T01:41:37;18.90;89.80
1716;DHT22;855;48.824;9.220;2023-07-02T01:44:05;18.80;89.90
1716;DHT22;855;48.824;9.220;2023-07-02T01:46:32;18.90;89.80
1716;DHT22;855;48.824;9.220;2023-07-02T01:48:59;19.00;89.70
1716;DHT22;855;48.824;9.220;2023-07-02T01:53:53;19.00;88.50
1716;DHT22;855;48.824;9.220;2023-07-02T01:56:22;18.90;88.20
1716;DHT22;855;48.824;9.220;2023-07-02T01:58:49;18.90;88.50
1716;DHT22;855;48.824;9.220;2023-07-02T02:01:16;18.90;88.50
1716;DHT22;855;48.824;9.220;2023-07-02T02:03:43;18.90;89.10
1716;DHT22;855;48.824;9.220;2023-07-02T02:06:11;19.00;88.50
1716;DHT22;855;48.824;9.220;2023-07-02T02:08:39;19.10;89.10
1716;DHT22;855;48.824;9.220;2023-07-02T02:11:07;19.20;88.90
1716;DHT22;855;48.824;9.220;2023-07-02T02:13:39;19.30;88.30
1716;DHT22;855;48.824;9.220;2023-07-02T02:16:08;19.30;88.30
1716;DHT22;855;48.824;9.220;2023-07-02T02:18:35;19.30;87.90
1716;DHT22;855;48.824;9.220;2023-07-02T02:21:03;19.30;88.10
1716;DHT22;855;48.824;9.220;2023-07-02T02:23:30;19.30;88.50
1716;DHT22;855;48.824;9.220;2023-07-02T02:26:00;19.30;89.10
1716;DHT22;855;48.824;9.220;2023-07-02T02:28:27;19.40;88.70
1716;DHT22;855;48.824;9.220;2023-07-02T02:30:56;19.40;88.10
1716;DHT22;855;48.824;9.220;2023-07-02T02:33:23;19.50;87.70
1716;DHT22;855;48.824;9.220;2023-07-02T02:35:50;19.50;87.10
1716;DHT22;855;48.824;9.220;2023-07-02T02:38:26;19.60;86.70
1716;DHT22;855;48.824;9.220;2023-07-02T02:40:53;19.60;86.70
1716;DHT22;855;48.824;9.220;2023-07-02T02:43:20;19.60;87.10
1716;DHT22;855;48.824;9.220;2023-07-02T02:45:48;19.60;87.30
1716;DHT22;855;48.824;9.220;2023-07-02T02:48:19;19.30;90.10
1716;DHT22;855;48.824;9.220;2023-07-02T02:50:47;19.30;90.50
1716;DHT22;855;48.824;9.220;2023-07-02T02:53:14;19.40;90.70
1716;DHT22;855;48.824;9.220;2023-07-02T02:55:42;19.40;90.60
1716;DHT22;855;48.824;9.220;2023-07-02T02:58:09;19.40;90.70
1716;DHT22;855;48.824;9.220;2023-07-02T03:00:36;19.50;90.60
1716;DHT22;855;48.824;9.220;2023-07-02T03:05:33;19.60;89.90
1716;DHT22;855;48.824;9.220;2023-07-02T03:08:00;19.50;88.60
1716;DHT22;855;48.824;9.220;2023-07-02T03:10:27;19.40;88.70
1716;DHT22;855;48.824;9.220;2023-07-02T03:12:55;19.40;88.70
1716;DHT22;855;48.824;9.220;2023-07-02T03:15:22;19.30;88.10
1716;DHT22;855;48.824;9.220;2023-07-02T03:17:49;19.30;88.20
1716;DHT22;855;48.824;9.220;2023-07-02T03:20:16;19.10;87.50
1716;DHT22;855;48.824;9.220;2023-07-02T03:22:45;19.10;87.50
1716;DHT22;855;48.824;9.220;2023-07-02T03:25:13;18.80;88.60
1716;DHT22;855;48.824;9.220;2023-07-02T03:30:08;18.40;89.80
1716;DHT22;855;48.824;9.220;2023-07-02T03:32:35;18.20;91.00
1716;DHT22;855;48.824;9.220;2023-07-02T03:35:02;18.10;91.90
1716;DHT22;855;48.824;9.220;2023-07-02T03:37:29;17.90;92.80
1716;DHT22;855;48.824;9.220;2023-07-02T03:39:57;17.90;93.60
1716;DHT22;855;48.824;9.220;2023-07-02T03:42:25;17.80;93.80
1716;DHT22;855;48.824;9.220;2023-07-02T03:44:51;17.80;94.10
1716;DHT22;855;48.824;9.220;2023-07-02T03:47:18;17.80;94.00
1716;DHT22;855;48.824;9.220;2023-07-02T03:49:46;17.80;93.40
1716;DHT22;855;48.824;9.220;2023-07-02T03:52:13;17.80;93.60
1716;DHT22;855;48.824;9.220;2023-07-02T03:54:40;17.80;93.50
1716;DHT22;855;48.824;9.220;2023-07-02T03:57:08;17.70;93.30
1716;DHT22;855;48.824;9.220;2023-07-02T03:59:35;17.60;92.50
1716;DHT22;855;48.824;9.220;2023-07-02T04:02:02;17.50;92.80
1716;DHT22;855;48.824;9.220;2023-07-02T04:04:29;17.40;93.20
1716;DHT22;855;48.824;9.220;2023-07-02T04:06:55;17.40;93.00
1716;DHT22;855;48.824;9.220;2023-07-02T04:09:22;17.30;93.20
1716;DHT22;855;48.824;9.220;2023-07-02T04:11:49;17.40;93.40
1716;DHT22;855;48.824;9.220;2023-07-02T04:14:17;17.40;93.40
1716;DHT22;855;48.824;9.220;2023-07-02T04:16:45;17.40;93.30
1716;DHT22;855;48.824;9.220;2023-07-02T04:19:11;17.40;93.10
1716;DHT22;855;48.824;9.220;2023-07-02T04:21:38;17.50;92.90
1716;DHT22;855;48.824;9.220;2023-07-02T04:24:05;17.60;93.20
1716;DHT22;855;48.824;9.220;2023-07-02T04:26:32;17.50;92.70
1716;DHT22;855;48.824;9.220;2023-07-02T04:28:59;17.40;91.80
1716;DHT22;855;48.824;9.220;2023-07-02T04:31:27;17.50;92.50
1716;DHT22;855;48.824;9.220;2023-07-02T04:33:55;17.60;92.60
1716;DHT22;855;48.824;9.220;2023-07-02T04:38:49;17.90;91.60
1716;DHT22;855;48.824;9.220;2023-07-02T04:41:18;18.00;91.60
1716;DHT22;855;48.824;9.220;2023-07-02T04:46:13;18.20;90.20
1716;DHT22;855;48.824;9.220;2023-07-02T04:48:41;18.30;90.30
1716;DHT22;855;48.824;9.220;2023-07-02T04:51:09;18.30;90.30
1716;DHT22;855;48.824;9.220;2023-07-02T04:53:36;18.40;90.10
1716;DHT22;855;48.824;9.220;2023-07-02T04:56:04;18.40;89.10
1716;DHT22;855;48.824;9.220;2023-07-02T04:58:31;18.40;88.30
1716;DHT22;855;48.824;9.220;2023-07-02T05:00:58;18.60;88.90
1716;DHT22;855;48.824;9.220;2023-07-02T05:03:26;18.80;87.90
1716;DHT22;855;48.824;9.220;2023-07-02T05:05:55;18.90;87.30
1716;DHT22;855;48.824;9.220;2023-07-02T05:08:22;19.00;86.60
1716;DHT22;855;48.824;9.220;2023-07-02T05:10:49;19.10;86.50
1716;DHT22;855;48.824;9.220;2023-07-02T05:13:15;19.30;85.70
1716;DHT22;855;48.824;9.220;2023-07-02T05:18:10;19.40;85.20
1716;DHT22;855;48.824;9.220;2023-07-02T05:20:37;19.40;85.60
1716;DHT22;855;48.824;9.220;2023-07-02T05:23:05;19.40;84.60
1716;DHT22;855;48.824;9.220;2023-07-02T05:28:00;19.50;84.10
1716;DHT22;855;48.824;9.220;2023-07-02T05:30:30;19.50;82.70
1716;DHT22;855;48.824;9.220;2023-07-02T05:32:57;19.50;83.00
1716;DHT22;855;48.824;9.220;2023-07-02T05:35:26;19.50;84.20
1716;DHT22;855;48.824;9.220;2023-07-02T05:37:56;19.60;84.20
1716;DHT22;855;48.824;9.220;2023-07-02T05:40:26;19.70;83.40
1716;DHT22;855;48.824;9.220;2023-07-02T05:42:54;19.70;83.30
1716;DHT22;855;48.824;9.220;2023-07-02T05:45:20;20.00;80.00
1716;DHT22;855;48.824;9.220;2023-07-02T05:47:53;20.00;80.00
1716;DHT22;855;48.824;9.220;2023-07-02T05:50:23;20.30;77.90
1716;DHT22;855;48.824;9.220;2023-07-02T05:52:50;20.60;78.00
1716;DHT22;855;48.824;9.220;2023-07-02T05:57:46;21.40;74.90
1716;DHT22;855;48.824;9.220;2023-07-02T06:00:14;21.70;73.90
1716;DHT22;855;48.824;9.220;2023-07-02T06:05:08;22.00;72.20
1716;DHT22;855;48.824;9.220;2023-07-02T06:07:35;22.00;71.90
1716;DHT22;855;48.824;9.220;2023-07-02T06:10:05;21.60;70.50
1716;DHT22;855;48.824;9.220;2023-07-02T06:12:32;21.60;70.50
1716;DHT22;855;48.824;9.220;2023-07-02T06:15:00;21.60;72.20
1716;DHT22;855;48.824;9.220;2023-07-02T06:17:27;21.80;71.70
1716;DHT22;855;48.824;9.220;2023-07-02T06:20:03;21.90;70.40
1716;DHT22;855;48.824;9.220;2023-07-02T06:22:32;22.00;70.10
1716;DHT22;855;48.824;9.220;2023-07-02T06:24:58;22.20;69.80
1716;DHT22;855;48.824;9.220;2023-07-02T06:27:25;22.30;69.00
1716;DHT22;855;48.824;9.220;2023-07-02T06:29:52;22.30;68.90
1716;DHT22;855;48.824;9.220;2023-07-02T06:32:20;22.20;69.40
1716;DHT22;855;48.824;9.220;2023-07-02T06:34:47;21.90;68.60
1716;DHT22;855;48.824;9.220;2023-07-02T06:37:14;21.70;69.20
1716;DHT22;855;48.824;9.220;2023-07-02T06:39:41;21.40;70.10
1716;DHT22;855;48.824;9.220;2023-07-02T06:42:07;21.10;71.30
1716;DHT22;855;48.824;9.220;2023-07-02T06:44:37;20.90;71.80
1716;DHT22;855;48.824;9.220;2023-07-02T06:47:04;20.50;71.70
1716;DHT22;855;48.824;9.220;2023-07-02T06:49:32;20.40;73.30
1716;DHT22;855;48.824;9.220;2023-07-02T06:51:59;20.30;73.10
1716;DHT22;855;48.824;9.220;2023-07-02T06:54:26;20.10;72.70
1716;DHT22;855;48.824;9.220;2023-07-02T06:56:53;20.10;73.80
1716;DHT22;855;48.824;9.220;2023-07-02T06:59:20;20.10;74.20
1716;DHT22;855;48.824;9.220;2023-07-02T07:01:47;20.20;74.10
1716;DHT22;855;48.824;9.220;2023-07-02T07:04:14;20.30;75.40
1716;DHT22;855;48.824;9.220;2023-07-02T07:06:42;20.20;73.70
1716;DHT22;855;48.824;9.220;2023-07-02T07:09:09;20.30;74.60
1716;DHT22;855;48.824;9.220;2023-07-02T07:11:36;20.50;75.30
1716;DHT22;855;48.824;9.220;2023-07-02T07:14:03;20.60;73.50
1716;DHT22;855;48.824;9.220;2023-07-02T07:16:30;20.60;72.10
1716;DHT22;855;48.824;9.220;2023-07-02T07:18:58;20.60;71.90
1716;DHT22;855;48.824;9.220;2023-07-02T07:21:25;20.70;71.80
1716;DHT22;855;48.824;9.220;2023-07-02T07:23:56;20.90;71.20
1716;DHT22;855;48.824;9.220;2023-07-02T07:26:23;20.90;70.90
1716;DHT22;855;48.824;9.220;2023-07-02T07:28:50;21.00;70.50
1716;DHT22;855;48.824;9.220;2023-07-02T07:31:17;21.00;69.80
1716;DHT22;855;48.824;9.220;2023-07-02T07:33:44;20.90;70.20
1716;DHT22;855;48.824;9.220;2023-07-02T07:36:10;20.90;70.50
1716;DHT22;855;48.824;9.220;2023-07-02T07:38:38;21.20;69.30
1716;DHT22;855;48.824;9.220;2023-07-02T07:41:09;21.30;69.30
1716;DHT22;855;48.824;9.220;2023-07-02T07:43:35;21.50;67.10
1716;DHT22;855;48.824;9.220;2023-07-02T07:46:02;21.60;66.30
1716;DHT22;855;48.824;9.220;2023-07-02T07:48:29;21.50;64.00
1716;DHT22;855;48.824;9.220;2023-07-02T07:50:56;21.30;64.40
1716;DHT22;855;48.824;9.220;2023-07-02T07:53:23;21.30;64.30
1716;DHT22;855;48.824;9.220;2023-07-02T07:55:49;21.30;63.90
1716;DHT22;855;48.824;9.220;2023-07-02T07:58:18;21.30;63.00
1716;DHT22;855;48.824;9.220;2023-07-02T08:00:44;21.20;65.10
1716;DHT22;855;48.824;9.220;2023-07-02T08:03:11;21.20;65.50
1716;DHT22;855;48.824;9.220;2023-07-02T08:05:38;21.30;64.30
1716;DHT22;855;48.824;9.220;2023-07-02T08:08:05;21.40;64.20
1716;DHT22;855;48.824;9.220;2023-07-02T08:10:33;21.40;64.50
1716;DHT22;855;48.824;9.220;2023-07-02T08:13:00;21.40;65.60
1716;DHT22;855;48.824;9.220;2023-07-02T08:15:28;21.50;64.30
1716;DHT22;855;48.824;9.220;2023-07-02T08:17:55;21.50;64.20
1716;DHT22;855;48.824;9.220;2023-07-02T08:20:24;21.50;63.00
1716;DHT22;855;48.824;9.220;2023-07-02T08:22:51;21.30;63.80
1716;DHT22;855;48.824;9.220;2023-07-02T08:25:18;21.40;64.20
1716;DHT22;855;48.824;9.220;2023-07-02T08:27:47;21.60;63.50
1716;DHT22;855;48.824;9.220;2023-07-02T08:30:13;21.70;64.00
1716;DHT22;855;48.824;9.220;2023-07-02T08:32:42;21.60;63.00
1716;DHT22;855;48.824;9.220;2023-07-02T08:35:08;21.60;62.40
1716;DHT22;855;48.824;9.220;2023-07-02T08:37:37;21.80;62.20
1716;DHT22;855;48.824;9.220;2023-07-02T08:40:05;22.10;61.50
1716;DHT22;855;48.824;9.220;2023-07-02T08:42:33;22.30;61.40
1716;DHT22;855;48.824;9.220;2023-07-02T08:45:00;22.50;60.40
1716;DHT22;855;48.824;9.220;2023-07-02T08:47:27;22.60;59.30
1716;DHT22;855;48.824;9.220;2023-07-02T08:49:56;23.00;59.90
1716;DHT22;855;48.824;9.220;2023-07-02T08:52:23;23.30;57.70
1716;DHT22;855;48.824;9.220;2023-07-02T08:54:49;23.40;56.70
1716;DHT22;855;48.824;9.220;2023-07-02T08:57:16;23.40;56.30
1716;DHT22;855;48.824;9.220;2023-07-02T08:59:43;23.50;55.30
1716;DHT22;855;48.824;9.220;2023-07-02T09:02:10;23.70;55.70
1716;DHT22;855;48.824;9.220;2023-07-02T09:04:37;23.80;54.80
1716;DHT22;855;48.824;9.220;2023-07-02T09:07:06;24.00;55.80
1716;DHT22;855;48.824;9.220;2023-07-02T09:09:44;24.20;53.30
1716;DHT22;855;48.824;9.220;2023-07-02T09:12:22;24.20;53.30
1716;DHT22;855;48.824;9.220;2023-07-02T09:14:54;24.40;53.30
1716;DHT22;855;48.824;9.220;2023-07-02T09:17:21;24.20;53.10
1716;DHT22;855;48.824;9.220;2023-07-02T09:19:50;24.10;54.70
1716;DHT22;855;48.824;9.220;2023-07-02T09:22:19;24.00;54.40
1716;DHT22;855;48.824;9.220;2023-07-02T09:24:51;24.10;54.00
1716;DHT22;855;48.824;9.220;2023-07-02T09:27:19;24.00;53.80
1716;DHT22;855;48.824;9.220;2023-07-02T09:29:50;23.90;54.20
1716;DHT22;855;48.824;9.220;2023-07-02T09:32:24;23.90;54.20
1716;DHT22;855;48.824;9.220;2023-07-02T09:34:53;23.70;55.00
1716;DHT22;855;48.824;9.220;2023-07-02T09:37:22;23.40;54.70
1716;DHT22;855;48.824;9.220;2023-07-02T09:39:50;23.20;55.50
1716;DHT22;855;48.824;9.220;2023-07-02T09:42:17;23.50;55.80
1716;DHT22;855;48.824;9.220;2023-07-02T09:44:45;23.80;54.00
1716;DHT22;855;48.824;9.220;2023-07-02T09:47:13;24.00;54.00
1716;DHT22;855;48.824;9.220;2023-07-02T09:49:45;24.10;53.10
1716;DHT22;855;48.824;9.220;2023-07-02T09:52:14;24.20;53.20
1716;DHT22;855;48.824;9.220;2023-07-02T09:54:42;24.40;51.70
1716;DHT22;855;48.824;9.220;2023-07-02T09:57:09;24.10;51.20
1716;DHT22;855;48.824;9.220;2023-07-02T09:59:37;24.20;52.80
1716;DHT22;855;48.824;9.220;2023-07-02T10:02:04;24.40;51.90
1716;DHT22;855;48.824;9.220;2023-07-02T10:04:39;24.40;52.80
1716;DHT22;855;48.824;9.220;2023-07-02T10:07:06;24.40;51.30
1716;DHT22;855;48.824;9.220;2023-07-02T10:09:38;24.50;51.20
1716;DHT22;855;48.824;9.220;2023-07-02T10:12:20;24.40;51.80
1716;DHT22;855;48.824;9.220;2023-07-02T10:14:48;24.40;52.20
1716;DHT22;855;48.824;9.220;2023-07-02T10:17:28;24.10;51.90
1716;DHT22;855;48.824;9.220;2023-07-02T10:19:57;24.10;52.20
1716;DHT22;855;48.824;9.220;2023-07-02T10:22:24;24.00;52.30
1716;DHT22;855;48.824;9.220;2023-07-02T10:24:52;24.10;53.90
1716;DHT22;855;48.824;9.220;2023-07-02T10:27:21;24.00;53.20
1716;DHT22;855;48.824;9.220;2023-07-02T10:29:59;24.00;53.20
1716;DHT22;855;48.824;9.220;2023-07-02T10:32:27;24.00;53.30
1716;DHT22;855;48.824;9.220;2023-07-02T10:34:54;24.30;54.90
1716;DHT22;855;48.824;9.220;2023-07-02T10:37:22;24.70;52.90
1716;DHT22;855;48.824;9.220;2023-07-02T10:39:48;24.80;51.30
1716;DHT22;855;48.824;9.220;2023-07-02T10:42:17;24.90;50.10
1716;DHT22;855;48.824;9.220;2023-07-02T10:44:52;24.90;51.20
1716;DHT22;855;48.824;9.220;2023-07-02T10:49:50;24.90;51.30
1716;DHT22;855;48.824;9.220;2023-07-02T10:52:19;25.10;51.20
1716;DHT22;855;48.824;9.220;2023-07-02T10:54:47;25.50;52.20
1716;DHT22;855;48.824;9.220;2023-07-02T10:57:19;26.00;50.10
1716;DHT22;855;48.824;9.220;2023-07-02T10:59:51;26.30;48.60
1716;DHT22;855;48.824;9.220;2023-07-02T11:02:20;26.30;49.30
1716;DHT22;855;48.824;9.220;2023-07-02T11:04:48;26.50;47.50
1716;DHT22;855;48.824;9.220;2023-07-02T11:07:22;26.40;47.50
1716;DHT22;855;48.824;9.220;2023-07-02T11:09:50;26.00;49.30
1716;DHT22;855;48.824;9.220;2023-07-02T11:12:17;25.30;49.80
1716;DHT22;855;48.824;9.220;2023-07-02T11:14:44;25.00;51.40
1716;DHT22;855;48.824;9.220;2023-07-02T11:17:12;24.90;51.10
1716;DHT22;855;48.824;9.220;2023-07-02T11:19:40;24.70;50.70
1716;DHT22;855;48.824;9.220;2023-07-02T11:22:07;24.50;49.70
1716;DHT22;855;48.824;9.220;2023-07-02T11:24:35;24.40;50.80
1716;DHT22;855;48.824;9.220;2023-07-02T11:27:03;24.70;50.40
1716;DHT22;855;48.824;9.220;2023-07-02T11:29:32;24.90;49.10
1716;DHT22;855;48.824;9.220;2023-07-02T11:32:05;24.90;49.10
1716;DHT22;855;48.824;9.220;2023-07-02T11:34:33;24.70;48.90
1716;DHT22;855;48.824;9.220;2023-07-02T11:37:00;24.70;49.20
1716;DHT22;855;48.824;9.220;2023-07-02T11:39:27;25.00;48.20
1716;DHT22;855;48.824;9.220;2023-07-02T11:41:54;25.30;47.70
1716;DHT22;855;48.824;9.220;2023-07-02T11:44:21;25.40;47.20
1716;DHT22;855;48.824;9.220;2023-07-02T11:46:48;25.70;47.30
1716;DHT22;855;48.824;9.220;2023-07-02T11:49:15;25.80;47.50
1716;DHT22;855;48.824;9.220;2023-07-02T11:51:45;26.00;47.80
1716;DHT22;855;48.824;9.220;2023-07-02T11:54:14;26.00;44.70
1716;DHT22;855;48.824;9.220;2023-07-02T11:56:41;26.30;45.80
1716;DHT22;855;48.824;9.220;2023-07-02T11:59:08;26.20;44.60
1716;DHT22;855;48.824;9.220;2023-07-02T12:01:35;26.00;46.10
1716;DHT22;855;48.824;9.220;2023-07-02T12:04:02;25.90;46.10
1716;DHT22;855;48.824;9.220;2023-07-02T12:06:30;25.80;44.70
1716;DHT22;855;48.824;9.220;2023-07-02T12:08:59;25.60;47.70
1716;DHT22;855;48.824;9.220;2023-07-02T12:11:25;25.30;45.70
1716;DHT22;855;48.824;9.220;2023-07-02T12:13:52;25.10;46.50
1716;DHT22;855;48.824;9.220;2023-07-02T12:16:19;25.20;47.60
1716;DHT22;855;48.824;9.220;2023-07-02T12:18:46;25.20;48.70
1716;DHT22;855;48.824;9.220;2023-07-02T12:21:12;25.10;48.20
1716;DHT22;855;48.824;9.220;2023-07-02T12:23:39;24.90;48.30
1716;DHT22;855;48.824;9.220;2023-07-02T12:26:08;24.90;48.60
1716;DHT22;855;48.824;9.220;2023-07-02T12:28:34;25.10;48.20
1716;DHT22;855;48.824;9.220;2023-07-02T12:31:01;25.30;48.10
1716;DHT22;855;48.824;9.220;2023-07-02T12:33:28;25.40;45.80
1716;DHT22;855;48.824;9.220;2023-07-02T12:35:55;25.40;46.20
1716;DHT22;855;48.824;9.220;2023-07-02T12:38:23;25.10;46.60
1716;DHT22;855;48.824;9.220;2023-07-02T12:40:50;25.10;46.50
1716;DHT22;855;48.824;9.220;2023-07-02T12:43:18;25.10;46.80
1716;DHT22;855;48.824;9.220;2023-07-02T12:45:45;25.30;45.70
1716;DHT22;855;48.824;9.220;2023-07-02T12:48:12;25.60;47.50
1716;DHT22;855;48.824;9.220;2023-07-02T12:50:39;25.60;46.10
1716;DHT22;855;48.824;9.220;2023-07-02T12:53:06;25.60;43.20
1716;DHT22;855;48.824;9.220;2023-07-02T12:55:32;25.70;45.00
1716;DHT22;855;48.824;9.220;2023-07-02T12:57:59;26.00;43.20
1716;DHT22;855;48.824;9.220;2023-07-02T13:00:27;26.10;44.00
1716;DHT22;855;48.824;9.220;2023-07-02T13:02:54;26.20;42.00
1716;DHT22;855;48.824;9.220;2023-07-02T13:05:21;26.10;42.20
1716;DHT22;855;48.824;9.220;2023-07-02T13:07:48;26.20;43.10
1716;DHT22;855;48.824;9.220;2023-07-02T13:10:14;26.10;43.00
1716;DHT22;855;48.824;9.220;2023-07-02T13:12:41;26.20;42.80
1716;DHT22;855;48.824;9.220;2023-07-02T13:15:09;26.40;42.80
1716;DHT22;855;48.824;9.220;2023-07-02T13:17:38;26.50;42.00
1716;DHT22;855;48.824;9.220;2023-07-02T13:20:07;26.70;42.30
1716;DHT22;855;48.824;9.220;2023-07-02T13:22:34;26.90;41.20
1716;DHT22;855;48.824;9.220;2023-07-02T13:25:03;27.00;41.00
1716;DHT22;855;48.824;9.220;2023-07-02T13:27:30;26.80;40.90
1716;DHT22;855;48.824;9.220;2023-07-02T13:29:57;26.60;41.50
1716;DHT22;855;48.824;9.220;2023-07-02T13:32:23;26.80;41.70
1716;DHT22;855;48.824;9.220;2023-07-02T13:34:52;26.70;40.50
1716;DHT22;855;48.824;9.220;2023-07-02T13:37:18;26.60;40.90
1716;DHT22;855;48.824;9.220;2023-07-02T13:39:45;26.60;41.00
1716;DHT22;855;48.824;9.220;2023-07-02T13:42:12;26.60;41.80
1716;DHT22;855;48.824;9.220;2023-07-02T13:44:39;26.60;41.40
1716;DHT22;855;48.824;9.220;2023-07-02T13:47:06;26.60;41.50
1716;DHT22;855;48.824;9.220;2023-07-02T13:49:33;26.40;41.80
1716;DHT22;855;48.824;9.220;2023-07-02T13:52:02;26.40;42.50
1716;DHT22;855;48.824;9.220;2023-07-02T13:54:29;26.50;40.60
1716;DHT22;855;48.824;9.220;2023-07-02T13:56:56;26.40;41.40
1716;DHT22;855;48.824;9.220;2023-07-02T13:59:25;26.60;41.80
1716;DHT22;855;48.824;9.220;2023-07-02T14:01:52;26.80;40.60
1716;DHT22;855;48.824;9.220;2023-07-02T14:04:19;27.00;40.20
1716;DHT22;855;48.824;9.220;2023-07-02T14:06:46;27.10;40.70
1716;DHT22;855;48.824;9.220;2023-07-02T14:09:12;27.00;40.20
1716;DHT22;855;48.824;9.220;2023-07-02T14:11:40;26.80;40.20
1716;DHT22;855;48.824;9.220;2023-07-02T14:14:08;26.70;40.50
1716;DHT22;855;48.824;9.220;2023-07-02T14:16:36;26.80;41.20
1716;DHT22;855;48.824;9.220;2023-07-02T14:19:03;26.80;41.00
1716;DHT22;855;48.824;9.220;2023-07-02T14:21:30;26.40;41.40
1716;DHT22;855;48.824;9.220;2023-07-02T14:23:57;26.30;41.00
1716;DHT22;855;48.824;9.220;2023-07-02T14:26:24;26.40;42.60
1716;DHT22;855;48.824;9.220;2023-07-02T14:28:52;26.60;41.70
1716;DHT22;855;48.824;9.220;2023-07-02T14:31:19;26.70;41.80
1716;DHT22;855;48.824;9.220;2023-07-02T14:33:47;26.80;41.00
1716;DHT22;855;48.824;9.220;2023-07-02T14:36:14;27.00;40.70
1716;DHT22;855;48.824;9.220;2023-07-02T14:38:41;27.10;39.60
1716;DHT22;855;48.824;9.220;2023-07-02T14:41:08;26.80;40.50
1716;DHT22;855;48.824;9.220;2023-07-02T14:43:34;26.80;40.90
1716;DHT22;855;48.824;9.220;2023-07-02T14:46:03;26.80;39.90
1716;DHT22;855;48.824;9.220;2023-07-02T14:48:30;26.80;39.60
1716;DHT22;855;48.824;9.220;2023-07-02T14:50:59;26.70;40.00
1716;DHT22;855;48.824;9.220;2023-07-02T14:53:28;26.80;40.20
1716;DHT22;855;48.824;9.220;2023-07-02T14:55:57;26.80;40.90
1716;DHT22;855;48.824;9.220;2023-07-02T14:58:24;26.80;41.00
1716;DHT22;855;48.824;9.220;2023-07-02T15:00:54;26.90;41.50
1716;DHT22;855;48.824;9.220;2023-07-02T15:03:22;27.10;40.60
1716;DHT22;855;48.824;9.220;2023-07-02T15:05:49;27.10;40.20
1716;DHT22;855;48.824;9.220;2023-07-02T15:08:19;27.00;40.70
1716;DHT22;855;48.824;9.220;2023-07-02T15:10:47;27.10;40.20
1716;DHT22;855;48.824;9.220;2023-07-02T15:13:15;27.40;40.60
1716;DHT22;855;48.824;9.220;2023-07-02T15:15:44;27.40;39.50
1716;DHT22;855;48.824;9.220;2023-07-02T15:18:12;27.30;39.10
1716;DHT22;855;48.824;9.220;2023-07-02T15:20:38;27.00;40.10
1716;DHT22;855;48.824;9.220;2023-07-02T15:23:05;27.00;40.00
1716;DHT22;855;48.824;9.220;2023-07-02T15:25:35;26.90;40.00
1716;DHT22;855;48.824;9.220;2023-07-02T15:28:02;27.10;40.00
1716;DHT22;855;48.824;9.220;2023-07-02T15:30:28;27.00;40.10
1716;DHT22;855;48.824;9.220;2023-07-02T15:32:55;27.10;40.40
1716;DHT22;855;48.824;9.220;2023-07-02T15:35:23;27.30;40.60
1716;DHT22;855;48.824;9.220;2023-07-02T15:37:50;27.30;40.20
1716;DHT22;855;48.824;9.220;2023-07-02T15:40:16;27.30;40.90
1716;DHT22;855;48.824;9.220;2023-07-02T15:42:45;27.20;40.10
1716;DHT22;855;48.824;9.220;2023-07-02T15:45:11;27.00;40.60
1716;DHT22;855;48.824;9.220;2023-07-02T15:47:38;26.90;40.70
1716;DHT22;855;48.824;9.220;2023-07-02T15:50:06;26.90;41.60
1716;DHT22;855;48.824;9.220;2023-07-02T15:52:33;26.90;40.70
1716;DHT22;855;48.824;9.220;2023-07-02T15:54:59;27.00;40.50
1716;DHT22;855;48.824;9.220;2023-07-02T15:57:26;26.90;40.40
1716;DHT22;855;48.824;9.220;2023-07-02T15:59:54;26.70;40.40
1716;DHT22;855;48.824;9.220;2023-07-02T16:02:21;26.70;40.60
1716;DHT22;855;48.824;9.220;2023-07-02T16:04:49;26.60;40.90
1716;DHT22;855;48.824;9.220;2023-07-02T16:07:16;26.80;41.10
1716;DHT22;855;48.824;9.220;2023-07-02T16:09:43;26.80;40.20
1716;DHT22;855;48.824;9.220;2023-07-02T16:12:10;26.90;40.40
1716;DHT22;855;48.824;9.220;2023-07-02T16:14:37;27.10;40.20
1716;DHT22;855;48.824;9.220;2023-07-02T16:17:06;27.00;40.20
1716;DHT22;855;48.824;9.220;2023-07-02T16:19:33;26.90;40.20
1716;DHT22;855;48.824;9.220;2023-07-02T16:22:01;26.90;39.50
1716;DHT22;855;48.824;9.220;2023-07-02T16:24:29;26.80;40.10
1716;DHT22;855;48.824;9.220;2023-07-02T16:26:57;26.70;41.00
1716;DHT22;855;48.824;9.220;2023-07-02T16:29:25;26.60;41.40
1716;DHT22;855;48.824;9.220;2023-07-02T16:31:53;26.60;41.10
1716;DHT22;855;48.824;9.220;2023-07-02T16:34:23;26.60;41.10
1716;DHT22;855;48.824;9.220;2023-07-02T16:36:50;26.70;41.10
1716;DHT22;855;48.824;9.220;2023-07-02T16:39:19;26.90;40.70
1716;DHT22;855;48.824;9.220;2023-07-02T16:41:46;27.00;40.70
1716;DHT22;855;48.824;9.220;2023-07-02T16:44:15;27.10;40.00
1716;DHT22;855;48.824;9.220;2023-07-02T16:46:44;27.00;39.40
1716;DHT22;855;48.824;9.220;2023-07-02T16:49:11;26.90;40.10
1716;DHT22;855;48.824;9.220;2023-07-02T16:51:39;26.90;40.10
1716;DHT22;855;48.824;9.220;2023-07-02T16:54:09;27.00;40.00
1716;DHT22;855;48.824;9.220;2023-07-02T16:56:41;26.90;40.60
1716;DHT22;855;48.824;9.220;2023-07-02T16:59:11;26.70;40.20
1716;DHT22;855;48.824;9.220;2023-07-02T17:01:38;26.60;40.50
1716;DHT22;855;48.824;9.220;2023-07-02T17:04:04;26.60;40.50